Tuesday, May 03, 2016
06:52 UTC
  |  Log In   |  Register Free
Airport Search:

Lawrence Smith Memorial Airport
(KLRY)

Lawrence Smith Memorial Airport Diagram
No Airport Diagram Available

FAA data valid effective Mar 31 2016 - May 26 2016 (unless otherwise noted).

 
 
 
 
 
 
 
 
 
 
 
 
 
 
Current Aviation Weather for KLRY

Weather Summary


Current weather conditions are not available for LRY - The nearest NOAA weather station is at LXT, (21 nm NW from LRY)

The most recent METAR observation for LRY was updated at: 12:53 UTC
METAR for KLRY is not available. Closest METAR is for KOJC 23.3 nm SE
KOJC  (23.3 nm SE)   (most recent observation was updated at 30:55 UTC)
030553Z AUTO 29004KT 10SM CLR 08/06 A3007 RMK AO2 SLP182 T00830061 10122 20072 401280072 56003

KRCM  (27.4 nm SW)   (most recent observation was updated at 30:63 UTC)
030635Z AUTO 00000KT 1 3/4SM BR VV007 06/06 A3006 RMK AO2

TAF for KLRY is not available.
KIXD  (28.8 nm SE)   (most recent observation was updatred at 30:52 UTC)
030520Z 0306/0406 VRB04KT P6SM FEW080 TEMPO 0308/0312 4SM BR FM031400 29005KT P6SM SCT050


KMKC  (32.9 nm SE)   (most recent observation was updatred at 30:52 UTC)
030520Z 0306/0406 VRB02KT P6SM FEW080 TEMPO 0308/0312 5SM BR FM031400 31005KT P6SM SCT050


GlobalAir.com is loading additional information.
 Current Weather at LXT
48.0 F° (8.9 C°)

West winds at 4.6 mph
Pressure:
30.07 in
Humidity:
89%
Wind:
West at 4.6 mph
Dew Point:
45.0 F° (7.2 C°)
Visibility:
10.00 mi
LRY NOAA Radar




Find All Airport Services Find A Hotel Find A Rental Car Find A Golf Course Find A Restaurant $100 Hamburger



Airport Weather Forecast for KLRY

Translated METAR for KLXT (0553 UTC)
METAR:
KLXT 030553Z AUTO 26005KT 10SM CLR 08/07 A3007 RMK AO2 SLP185 T00780067 10122 20078 401280078 55001
Conditions at:
KLXT (Lee'S Summit Muni, MO) observed 0553 UTC 03 May 2016
Temperature:
8°C (46.4°F)
Dewpoint:
7°C (44.6°F) [RH = 93.4]
Pressure:
30.07 inches Hg (1018.3 mb)
pressure at sea level is 185 in Hg
Winds:
from the W (260 degrees) at 5.8 mph (5 knots: 2.6 m/s)
Visibility:
10 mile(s)
Ceiling:
at least 12,000 feet AGL
Clouds:
Clear below 12,000 feet AGL
Remarks:
site is un-manned
site is automated and HAS a precipitation sensor

Translated TAF for KIXD (New Century Aircenter, KS) (0520 UTC)
TAF text:
KIXD 030520Z 0306/0406 VRB04KT P6SM FEW080
Forecast period:
Tuesday May 03 2016 06:00 UTC - Wednesday May 04 2016 06:00 UTC
Forecast type:
FROM: standard forecast or significant change
Winds:
variable wind direction at 4.6 mph (4 knots: 2.1 m/s)
Visibility:
6 or more mile(s) (9.7+ km)
Ceiling:
at least 12,000 feet AGL
Clouds:
Few Clouds at 8,000 feet AGL
Weather:
no significant weather observed at this time
TAF text:
0308/0312 4SM BR
Forecast period:
Wednesday May 04 2016 08:00 UTC - Wednesday May 04 2016 12:00 UTC
Forecast type:
FROM: standard forecast or significant change
Winds:
Visibility:
4 mile(s) (6.4 km)
Ceiling:
Clouds:
Weather:
Moderate Mist
TAF text:
FM031400 29005KT P6SM SCT050
Forecast period:
Tuesday May 03 2016 14:00 UTC - Wednesday May 04 2016 06:00 UTC
Forecast type:
FROM: standard forecast or significant change
Winds:
from the WNW (290 degrees) at 5.8 mph (5 knots: 2.6 m/s)
Visibility:
6 or more mile(s) (9.7+ km)
Ceiling:
at least 12,000 feet AGL
Clouds:
Scattered Clouds at 5,000 feet AGL
Weather:
no significant weather observed at this time
FBO's on the Field
FBO Company Facility Photos Services Transportation Aviation Fuel Prices: Prices include tax
Catering Weather Repair Courtesy Rental Type 100LL JetA JetA+ MOGAS 8087
 
City of Harrisonville

This FBO has not yet been rated
FS:Phillips 66
Last Updated: Apr-08
Login to update fuel prices
SS:
Contact City of HarrisonvilleMore FBO Information
 
Add another FBO Facility Photos Catering Weather Repair Courtesy Rental Type 100LL JetA JetA+ MOGAS 8087
Services Transportation Aviation Fuel Prices: Prices include tax


model-print
model-print
model-print
model-print